sensor_id;sensor_type;location;lat;lon;timestamp;P1;durP1;ratioP1;P2;durP2;ratioP2
20142;SDS011;10509;46.476;7.134;2022-07-25T00:00:16;8.10;;;7.50;;
20142;SDS011;10509;46.476;7.134;2022-07-25T00:02:42;7.93;;;7.33;;
20142;SDS011;10509;46.476;7.134;2022-07-25T00:05:09;7.70;;;7.30;;
20142;SDS011;10509;46.476;7.134;2022-07-25T00:07:34;8.00;;;7.60;;
20142;SDS011;10509;46.476;7.134;2022-07-25T00:10:00;8.43;;;7.93;;
20142;SDS011;10509;46.476;7.134;2022-07-25T00:12:26;8.07;;;7.37;;
20142;SDS011;10509;46.476;7.134;2022-07-25T00:14:52;7.70;;;7.10;;
20142;SDS011;10509;46.476;7.134;2022-07-25T00:17:19;8.10;;;7.60;;
20142;SDS011;10509;46.476;7.134;2022-07-25T00:19:45;8.00;;;7.50;;
20142;SDS011;10509;46.476;7.134;2022-07-25T00:22:11;7.90;;;7.40;;
20142;SDS011;10509;46.476;7.134;2022-07-25T00:24:37;7.50;;;7.10;;
20142;SDS011;10509;46.476;7.134;2022-07-25T00:27:03;7.70;;;7.30;;
20142;SDS011;10509;46.476;7.134;2022-07-25T00:29:29;7.73;;;7.33;;
20142;SDS011;10509;46.476;7.134;2022-07-25T00:31:55;8.50;;;8.00;;
20142;SDS011;10509;46.476;7.134;2022-07-25T00:34:21;8.13;;;7.63;;
20142;SDS011;10509;46.476;7.134;2022-07-25T00:36:47;7.37;;;6.97;;
20142;SDS011;10509;46.476;7.134;2022-07-25T00:39:13;6.77;;;6.43;;
20142;SDS011;10509;46.476;7.134;2022-07-25T00:41:39;8.20;;;7.67;;
20142;SDS011;10509;46.476;7.134;2022-07-25T00:44:05;8.43;;;7.97;;
20142;SDS011;10509;46.476;7.134;2022-07-25T00:46:31;8.03;;;7.63;;
20142;SDS011;10509;46.476;7.134;2022-07-25T00:48:57;7.40;;;7.00;;
20142;SDS011;10509;46.476;7.134;2022-07-25T00:51:23;11.30;;;10.50;;
20142;SDS011;10509;46.476;7.134;2022-07-25T00:53:50;8.30;;;7.80;;
20142;SDS011;10509;46.476;7.134;2022-07-25T00:56:16;8.40;;;7.80;;
20142;SDS011;10509;46.476;7.134;2022-07-25T00:58:42;8.30;;;7.80;;
20142;SDS011;10509;46.476;7.134;2022-07-25T01:01:09;8.90;;;8.40;;
20142;SDS011;10509;46.476;7.134;2022-07-25T01:03:35;8.13;;;7.63;;
20142;SDS011;10509;46.476;7.134;2022-07-25T01:06:01;7.87;;;7.47;;
20142;SDS011;10509;46.476;7.134;2022-07-25T01:08:27;8.13;;;7.63;;
20142;SDS011;10509;46.476;7.134;2022-07-25T01:10:54;8.43;;;7.93;;
20142;SDS011;10509;46.476;7.134;2022-07-25T01:13:20;9.57;;;8.97;;
20142;SDS011;10509;46.476;7.134;2022-07-25T01:15:46;9.07;;;8.57;;
20142;SDS011;10509;46.476;7.134;2022-07-25T01:18:12;9.07;;;8.57;;
20142;SDS011;10509;46.476;7.134;2022-07-25T01:20:38;8.40;;;7.90;;
20142;SDS011;10509;46.476;7.134;2022-07-25T01:23:04;8.57;;;8.17;;
20142;SDS011;10509;46.476;7.134;2022-07-25T01:25:30;8.60;;;8.10;;
20142;SDS011;10509;46.476;7.134;2022-07-25T01:27:56;8.27;;;7.80;;
20142;SDS011;10509;46.476;7.134;2022-07-25T01:30:22;8.00;;;7.60;;
20142;SDS011;10509;46.476;7.134;2022-07-25T01:32:49;8.20;;;7.80;;
20142;SDS011;10509;46.476;7.134;2022-07-25T01:35:15;8.20;;;7.70;;
20142;SDS011;10509;46.476;7.134;2022-07-25T01:37:41;7.70;;;7.20;;
20142;SDS011;10509;46.476;7.134;2022-07-25T01:40:07;8.70;;;8.00;;
20142;SDS011;10509;46.476;7.134;2022-07-25T01:42:33;8.90;;;8.40;;
20142;SDS011;10509;46.476;7.134;2022-07-25T01:44:59;8.93;;;8.43;;
20142;SDS011;10509;46.476;7.134;2022-07-25T01:47:25;8.30;;;7.60;;
20142;SDS011;10509;46.476;7.134;2022-07-25T01:49:51;7.57;;;7.13;;
20142;SDS011;10509;46.476;7.134;2022-07-25T01:52:17;7.80;;;7.30;;
20142;SDS011;10509;46.476;7.134;2022-07-25T01:54:43;8.50;;;8.00;;
20142;SDS011;10509;46.476;7.134;2022-07-25T01:57:09;8.33;;;7.63;;
20142;SDS011;10509;46.476;7.134;2022-07-25T01:59:36;7.97;;;7.47;;
20142;SDS011;10509;46.476;7.134;2022-07-25T02:02:06;8.43;;;7.93;;
20142;SDS011;10509;46.476;7.134;2022-07-25T02:04:32;8.33;;;7.83;;
20142;SDS011;10509;46.476;7.134;2022-07-25T02:06:59;8.20;;;7.70;;
20142;SDS011;10509;46.476;7.134;2022-07-25T02:09:25;7.80;;;7.40;;
20142;SDS011;10509;46.476;7.134;2022-07-25T02:11:51;7.00;;;6.60;;
20142;SDS011;10509;46.476;7.134;2022-07-25T02:14:17;7.80;;;7.20;;
20142;SDS011;10509;46.476;7.134;2022-07-25T02:16:43;7.37;;;6.97;;
20142;SDS011;10509;46.476;7.134;2022-07-25T02:19:09;8.27;;;7.77;;
20142;SDS011;10509;46.476;7.134;2022-07-25T02:21:35;8.63;;;7.93;;
20142;SDS011;10509;46.476;7.134;2022-07-25T02:24:01;9.27;;;8.67;;
20142;SDS011;10509;46.476;7.134;2022-07-25T02:26:27;8.30;;;7.80;;
20142;SDS011;10509;46.476;7.134;2022-07-25T02:28:53;7.90;;;7.40;;
20142;SDS011;10509;46.476;7.134;2022-07-25T02:31:19;8.87;;;8.17;;
20142;SDS011;10509;46.476;7.134;2022-07-25T02:33:45;8.90;;;8.40;;
20142;SDS011;10509;46.476;7.134;2022-07-25T02:36:11;8.27;;;7.77;;
20142;SDS011;10509;46.476;7.134;2022-07-25T02:38:37;7.57;;;6.97;;
20142;SDS011;10509;46.476;7.134;2022-07-25T02:41:03;8.40;;;7.90;;
20142;SDS011;10509;46.476;7.134;2022-07-25T02:43:29;8.20;;;7.50;;
20142;SDS011;10509;46.476;7.134;2022-07-25T02:45:55;8.23;;;7.73;;
20142;SDS011;10509;46.476;7.134;2022-07-25T02:48:22;8.70;;;8.10;;
20142;SDS011;10509;46.476;7.134;2022-07-25T02:50:48;7.90;;;7.40;;
20142;SDS011;10509;46.476;7.134;2022-07-25T02:53:14;7.90;;;7.40;;
20142;SDS011;10509;46.476;7.134;2022-07-25T02:55:40;8.30;;;7.80;;
20142;SDS011;10509;46.476;7.134;2022-07-25T02:58:06;9.13;;;8.63;;
20142;SDS011;10509;46.476;7.134;2022-07-25T03:00:32;9.03;;;8.43;;
20142;SDS011;10509;46.476;7.134;2022-07-25T03:02:58;9.27;;;8.77;;
20142;SDS011;10509;46.476;7.134;2022-07-25T03:05:24;8.50;;;7.90;;
20142;SDS011;10509;46.476;7.134;2022-07-25T03:07:50;9.30;;;8.80;;
20142;SDS011;10509;46.476;7.134;2022-07-25T03:10:16;8.47;;;7.97;;
20142;SDS011;10509;46.476;7.134;2022-07-25T03:12:43;8.17;;;7.67;;
20142;SDS011;10509;46.476;7.134;2022-07-25T03:15:09;8.40;;;7.90;;
20142;SDS011;10509;46.476;7.134;2022-07-25T03:17:36;8.17;;;7.63;;
20142;SDS011;10509;46.476;7.134;2022-07-25T03:20:03;7.93;;;7.53;;
20142;SDS011;10509;46.476;7.134;2022-07-25T03:22:29;8.03;;;7.63;;
20142;SDS011;10509;46.476;7.134;2022-07-25T03:24:55;8.30;;;7.80;;
20142;SDS011;10509;46.476;7.134;2022-07-25T03:27:21;7.80;;;7.30;;
20142;SDS011;10509;46.476;7.134;2022-07-25T03:29:47;8.20;;;7.70;;
20142;SDS011;10509;46.476;7.134;2022-07-25T03:32:13;8.50;;;8.00;;
20142;SDS011;10509;46.476;7.134;2022-07-25T03:34:39;7.77;;;7.37;;
20142;SDS011;10509;46.476;7.134;2022-07-25T03:37:05;8.83;;;8.13;;
20142;SDS011;10509;46.476;7.134;2022-07-25T03:39:31;9.23;;;8.60;;
20142;SDS011;10509;46.476;7.134;2022-07-25T03:41:58;8.37;;;7.77;;
20142;SDS011;10509;46.476;7.134;2022-07-25T03:44:24;8.23;;;7.73;;
20142;SDS011;10509;46.476;7.134;2022-07-25T03:46:50;8.73;;;8.23;;
20142;SDS011;10509;46.476;7.134;2022-07-25T03:49:16;8.30;;;7.83;;
20142;SDS011;10509;46.476;7.134;2022-07-25T03:51:42;8.53;;;7.93;;
20142;SDS011;10509;46.476;7.134;2022-07-25T03:54:08;8.00;;;7.50;;
20142;SDS011;10509;46.476;7.134;2022-07-25T03:56:39;7.43;;;7.03;;
20142;SDS011;10509;46.476;7.134;2022-07-25T03:59:05;8.07;;;7.57;;
20142;SDS011;10509;46.476;7.134;2022-07-25T04:01:31;7.87;;;7.47;;
20142;SDS011;10509;46.476;7.134;2022-07-25T04:03:57;8.67;;;7.87;;
20142;SDS011;10509;46.476;7.134;2022-07-25T04:06:24;8.00;;;7.50;;
20142;SDS011;10509;46.476;7.134;2022-07-25T04:08:50;7.67;;;7.07;;
20142;SDS011;10509;46.476;7.134;2022-07-25T04:11:16;8.00;;;7.47;;
20142;SDS011;10509;46.476;7.134;2022-07-25T04:13:42;7.43;;;7.03;;
20142;SDS011;10509;46.476;7.134;2022-07-25T04:16:08;7.50;;;7.00;;
20142;SDS011;10509;46.476;7.134;2022-07-25T04:18:34;7.40;;;7.00;;
20142;SDS011;10509;46.476;7.134;2022-07-25T04:21:01;8.10;;;7.60;;
20142;SDS011;10509;46.476;7.134;2022-07-25T04:23:27;6.93;;;6.43;;
20142;SDS011;10509;46.476;7.134;2022-07-25T04:25:53;7.30;;;6.90;;
20142;SDS011;10509;46.476;7.134;2022-07-25T04:28:19;7.70;;;7.30;;
20142;SDS011;10509;46.476;7.134;2022-07-25T04:30:45;8.00;;;7.50;;
20142;SDS011;10509;46.476;7.134;2022-07-25T04:33:12;7.77;;;7.30;;
20142;SDS011;10509;46.476;7.134;2022-07-25T04:35:38;7.30;;;6.90;;
20142;SDS011;10509;46.476;7.134;2022-07-25T04:38:04;7.43;;;6.93;;
20142;SDS011;10509;46.476;7.134;2022-07-25T04:40:30;7.20;;;6.70;;
20142;SDS011;10509;46.476;7.134;2022-07-25T04:42:56;7.13;;;6.73;;
20142;SDS011;10509;46.476;7.134;2022-07-25T04:45:23;7.43;;;7.03;;
20142;SDS011;10509;46.476;7.134;2022-07-25T04:47:49;7.47;;;6.97;;
20142;SDS011;10509;46.476;7.134;2022-07-25T04:50:15;7.77;;;7.27;;
20142;SDS011;10509;46.476;7.134;2022-07-25T04:52:41;7.83;;;7.30;;
20142;SDS011;10509;46.476;7.134;2022-07-25T04:55:07;7.60;;;7.10;;
20142;SDS011;10509;46.476;7.134;2022-07-25T04:57:34;7.70;;;7.20;;
20142;SDS011;10509;46.476;7.134;2022-07-25T05:00:00;7.80;;;7.20;;
20142;SDS011;10509;46.476;7.134;2022-07-25T05:02:26;7.37;;;6.97;;
20142;SDS011;10509;46.476;7.134;2022-07-25T05:04:52;7.50;;;7.10;;
20142;SDS011;10509;46.476;7.134;2022-07-25T05:07:18;8.33;;;7.73;;
20142;SDS011;10509;46.476;7.134;2022-07-25T05:09:44;7.97;;;7.37;;
20142;SDS011;10509;46.476;7.134;2022-07-25T05:12:10;7.13;;;6.73;;
20142;SDS011;10509;46.476;7.134;2022-07-25T05:14:36;7.53;;;6.97;;
20142;SDS011;10509;46.476;7.134;2022-07-25T05:17:03;7.20;;;6.67;;
20142;SDS011;10509;46.476;7.134;2022-07-25T05:19:29;8.00;;;7.50;;
20142;SDS011;10509;46.476;7.134;2022-07-25T05:21:55;7.83;;;7.23;;
20142;SDS011;10509;46.476;7.134;2022-07-25T05:24:21;7.80;;;7.40;;
20142;SDS011;10509;46.476;7.134;2022-07-25T05:26:47;7.97;;;7.27;;
20142;SDS011;10509;46.476;7.134;2022-07-25T05:29:14;7.77;;;7.17;;
20142;SDS011;10509;46.476;7.134;2022-07-25T05:31:40;7.50;;;6.90;;
20142;SDS011;10509;46.476;7.134;2022-07-25T05:34:06;6.93;;;6.43;;
20142;SDS011;10509;46.476;7.134;2022-07-25T05:36:32;6.70;;;6.07;;
20142;SDS011;10509;46.476;7.134;2022-07-25T05:38:58;7.13;;;6.73;;
20142;SDS011;10509;46.476;7.134;2022-07-25T05:41:24;7.03;;;6.43;;
20142;SDS011;10509;46.476;7.134;2022-07-25T05:43:50;7.40;;;6.90;;
20142;SDS011;10509;46.476;7.134;2022-07-25T05:46:17;7.05;;;6.47;;
20142;SDS011;10509;46.476;7.134;2022-07-25T05:48:43;7.23;;;6.80;;
20142;SDS011;10509;46.476;7.134;2022-07-25T05:51:09;7.00;;;6.25;;
20142;SDS011;10509;46.476;7.134;2022-07-25T05:53:35;6.50;;;5.93;;
20142;SDS011;10509;46.476;7.134;2022-07-25T05:56:01;6.25;;;5.75;;
20142;SDS011;10509;46.476;7.134;2022-07-25T05:58:27;6.82;;;6.32;;
20142;SDS011;10509;46.476;7.134;2022-07-25T06:00:54;7.22;;;6.70;;
20142;SDS011;10509;46.476;7.134;2022-07-25T06:03:20;6.60;;;6.20;;
20142;SDS011;10509;46.476;7.134;2022-07-25T06:05:46;6.57;;;6.05;;
20142;SDS011;10509;46.476;7.134;2022-07-25T06:08:12;6.60;;;6.10;;
20142;SDS011;10509;46.476;7.134;2022-07-25T06:10:38;6.13;;;5.72;;
20142;SDS011;10509;46.476;7.134;2022-07-25T06:13:04;5.93;;;5.63;;
20142;SDS011;10509;46.476;7.134;2022-07-25T06:15:31;6.53;;;6.05;;
20142;SDS011;10509;46.476;7.134;2022-07-25T06:17:57;6.00;;;5.50;;
20142;SDS011;10509;46.476;7.134;2022-07-25T06:20:23;6.30;;;5.90;;
20142;SDS011;10509;46.476;7.134;2022-07-25T06:22:49;5.57;;;5.20;;
20142;SDS011;10509;46.476;7.134;2022-07-25T06:25:15;6.63;;;6.13;;
20142;SDS011;10509;46.476;7.134;2022-07-25T06:27:41;5.95;;;5.55;;
20142;SDS011;10509;46.476;7.134;2022-07-25T06:30:07;5.65;;;5.25;;
20142;SDS011;10509;46.476;7.134;2022-07-25T06:32:34;6.47;;;6.07;;
20142;SDS011;10509;46.476;7.134;2022-07-25T06:35:00;5.82;;;5.43;;
20142;SDS011;10509;46.476;7.134;2022-07-25T06:37:26;5.55;;;5.22;;
20142;SDS011;10509;46.476;7.134;2022-07-25T06:39:52;5.65;;;5.25;;
20142;SDS011;10509;46.476;7.134;2022-07-25T06:42:18;5.45;;;5.03;;
20142;SDS011;10509;46.476;7.134;2022-07-25T06:44:44;5.10;;;4.90;;
20142;SDS011;10509;46.476;7.134;2022-07-25T06:47:10;5.47;;;5.07;;
20142;SDS011;10509;46.476;7.134;2022-07-25T06:49:37;4.85;;;4.55;;
20142;SDS011;10509;46.476;7.134;2022-07-25T06:52:03;4.80;;;4.50;;
20142;SDS011;10509;46.476;7.134;2022-07-25T06:54:30;5.22;;;4.93;;
20142;SDS011;10509;46.476;7.134;2022-07-25T06:56:56;5.18;;;4.72;;
20142;SDS011;10509;46.476;7.134;2022-07-25T06:59:22;5.00;;;4.70;;
20142;SDS011;10509;46.476;7.134;2022-07-25T07:01:48;4.97;;;4.68;;
20142;SDS011;10509;46.476;7.134;2022-07-25T07:04:14;5.10;;;4.60;;
20142;SDS011;10509;46.476;7.134;2022-07-25T07:06:40;4.97;;;4.68;;
20142;SDS011;10509;46.476;7.134;2022-07-25T07:09:07;5.10;;;4.80;;
20142;SDS011;10509;46.476;7.134;2022-07-25T07:11:33;5.60;;;4.82;;
20142;SDS011;10509;46.476;7.134;2022-07-25T07:14:02;5.28;;;4.72;;
20142;SDS011;10509;46.476;7.134;2022-07-25T07:16:29;4.80;;;4.50;;
20142;SDS011;10509;46.476;7.134;2022-07-25T07:18:55;5.00;;;4.60;;
20142;SDS011;10509;46.476;7.134;2022-07-25T07:21:21;4.40;;;4.10;;
20142;SDS011;10509;46.476;7.134;2022-07-25T07:23:47;4.22;;;4.00;;
20142;SDS011;10509;46.476;7.134;2022-07-25T07:26:13;4.80;;;4.50;;
20142;SDS011;10509;46.476;7.134;2022-07-25T07:28:40;4.63;;;4.32;;
20142;SDS011;10509;46.476;7.134;2022-07-25T07:31:06;4.38;;;4.07;;
20142;SDS011;10509;46.476;7.134;2022-07-25T07:33:32;4.28;;;3.95;;
20142;SDS011;10509;46.476;7.134;2022-07-25T07:35:59;4.00;;;3.72;;
20142;SDS011;10509;46.476;7.134;2022-07-25T07:38:25;5.10;;;4.60;;
20142;SDS011;10509;46.476;7.134;2022-07-25T07:40:52;4.65;;;4.35;;
20142;SDS011;10509;46.476;7.134;2022-07-25T07:43:18;4.30;;;4.10;;
20142;SDS011;10509;46.476;7.134;2022-07-25T07:45:44;4.90;;;4.60;;
20142;SDS011;10509;46.476;7.134;2022-07-25T07:48:10;4.25;;;4.05;;
20142;SDS011;10509;46.476;7.134;2022-07-25T07:50:36;4.40;;;4.03;;
20142;SDS011;10509;46.476;7.134;2022-07-25T07:53:02;4.00;;;3.70;;
20142;SDS011;10509;46.476;7.134;2022-07-25T07:55:29;4.10;;;3.90;;
20142;SDS011;10509;46.476;7.134;2022-07-25T07:58:14;4.45;;;4.22;;
20142;SDS011;10509;46.476;7.134;2022-07-25T08:00:40;5.97;;;4.55;;
20142;SDS011;10509;46.476;7.134;2022-07-25T08:03:06;4.13;;;3.83;;
20142;SDS011;10509;46.476;7.134;2022-07-25T08:05:40;4.07;;;3.83;;
20142;SDS011;10509;46.476;7.134;2022-07-25T08:08:08;5.28;;;4.28;;
20142;SDS011;10509;46.476;7.134;2022-07-25T08:10:35;4.82;;;4.30;;
20142;SDS011;10509;46.476;7.134;2022-07-25T08:13:12;4.60;;;4.03;;
20142;SDS011;10509;46.476;7.134;2022-07-25T08:15:38;3.97;;;3.70;;
20142;SDS011;10509;46.476;7.134;2022-07-25T08:18:04;3.72;;;3.50;;
20142;SDS011;10509;46.476;7.134;2022-07-25T08:20:30;4.78;;;4.32;;
20142;SDS011;10509;46.476;7.134;2022-07-25T08:22:56;4.00;;;3.60;;
20142;SDS011;10509;46.476;7.134;2022-07-25T08:25:24;3.80;;;3.60;;
20142;SDS011;10509;46.476;7.134;2022-07-25T08:27:51;3.75;;;3.55;;
20142;SDS011;10509;46.476;7.134;2022-07-25T08:30:17;4.00;;;3.70;;
20142;SDS011;10509;46.476;7.134;2022-07-25T08:32:48;9.05;;;3.90;;
20142;SDS011;10509;46.476;7.134;2022-07-25T08:35:14;3.65;;;3.38;;
20142;SDS011;10509;46.476;7.134;2022-07-25T08:37:41;3.72;;;3.42;;
20142;SDS011;10509;46.476;7.134;2022-07-25T08:40:08;5.05;;;3.58;;
20142;SDS011;10509;46.476;7.134;2022-07-25T08:42:34;3.30;;;3.05;;
20142;SDS011;10509;46.476;7.134;2022-07-25T08:45:02;3.17;;;2.97;;
20142;SDS011;10509;46.476;7.134;2022-07-25T08:47:29;3.13;;;2.92;;
20142;SDS011;10509;46.476;7.134;2022-07-25T08:49:55;4.15;;;3.30;;
20142;SDS011;10509;46.476;7.134;2022-07-25T08:52:21;7.57;;;3.45;;
20142;SDS011;10509;46.476;7.134;2022-07-25T08:54:47;3.33;;;3.03;;
20142;SDS011;10509;46.476;7.134;2022-07-25T08:57:13;3.28;;;2.95;;
20142;SDS011;10509;46.476;7.134;2022-07-25T08:59:39;3.17;;;2.97;;
20142;SDS011;10509;46.476;7.134;2022-07-25T09:02:06;3.00;;;2.70;;
20142;SDS011;10509;46.476;7.134;2022-07-25T09:04:34;3.25;;;2.95;;
20142;SDS011;10509;46.476;7.134;2022-07-25T09:07:01;3.42;;;3.13;;
20142;SDS011;10509;46.476;7.134;2022-07-25T09:09:35;3.55;;;2.90;;
20142;SDS011;10509;46.476;7.134;2022-07-25T09:12:02;2.90;;;2.70;;
20142;SDS011;10509;46.476;7.134;2022-07-25T09:14:29;2.80;;;2.60;;
20142;SDS011;10509;46.476;7.134;2022-07-25T09:16:55;3.75;;;3.45;;
20142;SDS011;10509;46.476;7.134;2022-07-25T09:19:23;3.95;;;3.65;;
20142;SDS011;10509;46.476;7.134;2022-07-25T09:22:00;4.13;;;3.28;;
20142;SDS011;10509;46.476;7.134;2022-07-25T09:24:27;3.03;;;2.80;;
20142;SDS011;10509;46.476;7.134;2022-07-25T09:26:54;2.78;;;2.55;;
20142;SDS011;10509;46.476;7.134;2022-07-25T09:31:47;3.78;;;2.83;;
20142;SDS011;10509;46.476;7.134;2022-07-25T09:34:27;3.10;;;2.88;;
20142;SDS011;10509;46.476;7.134;2022-07-25T09:36:54;2.97;;;2.78;;
20142;SDS011;10509;46.476;7.134;2022-07-25T09:39:30;2.80;;;2.67;;
20142;SDS011;10509;46.476;7.134;2022-07-25T09:41:57;4.90;;;3.50;;
20142;SDS011;10509;46.476;7.134;2022-07-25T09:44:23;3.35;;;3.15;;
20142;SDS011;10509;46.476;7.134;2022-07-25T09:46:54;2.70;;;2.50;;
20142;SDS011;10509;46.476;7.134;2022-07-25T09:49:20;3.05;;;2.85;;
20142;SDS011;10509;46.476;7.134;2022-07-25T09:51:46;3.00;;;2.80;;
20142;SDS011;10509;46.476;7.134;2022-07-25T09:54:12;3.88;;;2.70;;
20142;SDS011;10509;46.476;7.134;2022-07-25T09:56:38;3.72;;;3.28;;
20142;SDS011;10509;46.476;7.134;2022-07-25T09:59:04;2.85;;;2.65;;
20142;SDS011;10509;46.476;7.134;2022-07-25T10:01:34;2.65;;;2.45;;
20142;SDS011;10509;46.476;7.134;2022-07-25T10:04:14;5.30;;;3.03;;
20142;SDS011;10509;46.476;7.134;2022-07-25T10:06:49;3.10;;;2.90;;
20142;SDS011;10509;46.476;7.134;2022-07-25T10:09:17;3.15;;;2.63;;
20142;SDS011;10509;46.476;7.134;2022-07-25T10:14:27;3.75;;;2.97;;
20142;SDS011;10509;46.476;7.134;2022-07-25T10:16:53;8.10;;;3.38;;
20142;SDS011;10509;46.476;7.134;2022-07-25T10:19:38;2.97;;;2.78;;
20142;SDS011;10509;46.476;7.134;2022-07-25T10:22:08;3.58;;;3.30;;
20142;SDS011;10509;46.476;7.134;2022-07-25T10:24:34;2.92;;;2.72;;
20142;SDS011;10509;46.476;7.134;2022-07-25T10:27:09;3.08;;;2.88;;
20142;SDS011;10509;46.476;7.134;2022-07-25T10:29:36;4.97;;;3.15;;
20142;SDS011;10509;46.476;7.134;2022-07-25T10:32:06;3.10;;;2.90;;
20142;SDS011;10509;46.476;7.134;2022-07-25T10:34:33;4.03;;;3.25;;
20142;SDS011;10509;46.476;7.134;2022-07-25T10:39:38;3.70;;;3.40;;
20142;SDS011;10509;46.476;7.134;2022-07-25T10:42:05;3.33;;;3.08;;
20142;SDS011;10509;46.476;7.134;2022-07-25T10:44:42;3.83;;;3.53;;
20142;SDS011;10509;46.476;7.134;2022-07-25T10:47:08;3.60;;;3.40;;
20142;SDS011;10509;46.476;7.134;2022-07-25T10:49:36;3.53;;;3.33;;
20142;SDS011;10509;46.476;7.134;2022-07-25T10:52:04;3.35;;;3.13;;
20142;SDS011;10509;46.476;7.134;2022-07-25T10:54:36;3.60;;;3.40;;
20142;SDS011;10509;46.476;7.134;2022-07-25T10:57:03;3.45;;;3.20;;
20142;SDS011;10509;46.476;7.134;2022-07-25T11:01:59;3.88;;;3.58;;
20142;SDS011;10509;46.476;7.134;2022-07-25T11:04:25;3.50;;;3.20;;
20142;SDS011;10509;46.476;7.134;2022-07-25T11:06:51;3.35;;;3.15;;
20142;SDS011;10509;46.476;7.134;2022-07-25T11:09:21;4.25;;;3.85;;
20142;SDS011;10509;46.476;7.134;2022-07-25T11:11:49;3.47;;;3.28;;
20142;SDS011;10509;46.476;7.134;2022-07-25T11:16:45;4.40;;;3.40;;
20142;SDS011;10509;46.476;7.134;2022-07-25T11:19:18;3.42;;;3.22;;
20142;SDS011;10509;46.476;7.134;2022-07-25T11:21:49;3.58;;;3.38;;
20142;SDS011;10509;46.476;7.134;2022-07-25T11:24:15;4.00;;;3.40;;
20142;SDS011;10509;46.476;7.134;2022-07-25T11:26:45;4.32;;;3.60;;
20142;SDS011;10509;46.476;7.134;2022-07-25T11:29:18;3.47;;;3.17;;
20142;SDS011;10509;46.476;7.134;2022-07-25T11:34:30;3.80;;;3.50;;
20142;SDS011;10509;46.476;7.134;2022-07-25T11:36:57;4.30;;;3.58;;
20142;SDS011;10509;46.476;7.134;2022-07-25T11:39:27;3.65;;;3.42;;
20142;SDS011;10509;46.476;7.134;2022-07-25T11:41:57;3.53;;;3.22;;
20142;SDS011;10509;46.476;7.134;2022-07-25T11:49:56;3.78;;;3.08;;
20142;SDS011;10509;46.476;7.134;2022-07-25T11:52:26;3.47;;;3.17;;
20142;SDS011;10509;46.476;7.134;2022-07-25T11:57:22;3.33;;;3.13;;
20142;SDS011;10509;46.476;7.134;2022-07-25T11:59:49;3.45;;;3.20;;
20142;SDS011;10509;46.476;7.134;2022-07-25T12:04:57;4.15;;;3.80;;
20142;SDS011;10509;46.476;7.134;2022-07-25T12:07:43;3.95;;;3.65;;
20142;SDS011;10509;46.476;7.134;2022-07-25T12:10:11;6.80;;;3.97;;
20142;SDS011;10509;46.476;7.134;2022-07-25T12:12:55;3.88;;;3.58;;
20142;SDS011;10509;46.476;7.134;2022-07-25T12:15:25;3.30;;;3.10;;
20142;SDS011;10509;46.476;7.134;2022-07-25T12:17:51;3.78;;;3.50;;
20142;SDS011;10509;46.476;7.134;2022-07-25T12:20:19;3.60;;;3.30;;
20142;SDS011;10509;46.476;7.134;2022-07-25T12:22:45;3.83;;;3.45;;
20142;SDS011;10509;46.476;7.134;2022-07-25T12:25:12;4.00;;;3.70;;
20142;SDS011;10509;46.476;7.134;2022-07-25T12:27:38;5.00;;;3.45;;
20142;SDS011;10509;46.476;7.134;2022-07-25T12:30:04;3.55;;;3.35;;
20142;SDS011;10509;46.476;7.134;2022-07-25T12:32:30;4.05;;;3.85;;
20142;SDS011;10509;46.476;7.134;2022-07-25T12:34:56;3.42;;;3.22;;
20142;SDS011;10509;46.476;7.134;2022-07-25T12:37:24;3.83;;;3.53;;
20142;SDS011;10509;46.476;7.134;2022-07-25T12:39:50;3.90;;;3.70;;
20142;SDS011;10509;46.476;7.134;2022-07-25T12:42:16;4.03;;;3.72;;
20142;SDS011;10509;46.476;7.134;2022-07-25T12:44:43;4.00;;;3.70;;
20142;SDS011;10509;46.476;7.134;2022-07-25T12:47:08;3.97;;;3.72;;
20142;SDS011;10509;46.476;7.134;2022-07-25T12:49:34;3.83;;;3.63;;
20142;SDS011;10509;46.476;7.134;2022-07-25T12:52:01;5.60;;;3.75;;
20142;SDS011;10509;46.476;7.134;2022-07-25T12:54:27;4.03;;;3.72;;
20142;SDS011;10509;46.476;7.134;2022-07-25T12:56:54;3.30;;;2.90;;
20142;SDS011;10509;46.476;7.134;2022-07-25T12:59:20;4.13;;;3.90;;
20142;SDS011;10509;46.476;7.134;2022-07-25T13:01:46;3.88;;;3.58;;
20142;SDS011;10509;46.476;7.134;2022-07-25T13:04:13;5.00;;;3.50;;
20142;SDS011;10509;46.476;7.134;2022-07-25T13:06:39;4.20;;;3.90;;
20142;SDS011;10509;46.476;7.134;2022-07-25T13:09:05;4.03;;;3.55;;
20142;SDS011;10509;46.476;7.134;2022-07-25T13:11:31;3.53;;;3.22;;
20142;SDS011;10509;46.476;7.134;2022-07-25T13:13:57;3.42;;;3.22;;
20142;SDS011;10509;46.476;7.134;2022-07-25T13:16:23;4.22;;;3.83;;
20142;SDS011;10509;46.476;7.134;2022-07-25T13:18:49;3.90;;;3.60;;
20142;SDS011;10509;46.476;7.134;2022-07-25T13:21:15;4.03;;;3.60;;
20142;SDS011;10509;46.476;7.134;2022-07-25T13:23:42;3.80;;;3.50;;
20142;SDS011;10509;46.476;7.134;2022-07-25T13:26:08;3.50;;;3.30;;
20142;SDS011;10509;46.476;7.134;2022-07-25T13:28:35;6.68;;;3.60;;
20142;SDS011;10509;46.476;7.134;2022-07-25T13:31:01;4.32;;;3.90;;
20142;SDS011;10509;46.476;7.134;2022-07-25T13:33:29;3.83;;;3.60;;
20142;SDS011;10509;46.476;7.134;2022-07-25T13:35:55;3.67;;;3.38;;
20142;SDS011;10509;46.476;7.134;2022-07-25T13:38:21;4.70;;;3.33;;
20142;SDS011;10509;46.476;7.134;2022-07-25T13:40:47;3.80;;;3.58;;
20142;SDS011;10509;46.476;7.134;2022-07-25T13:43:13;3.50;;;3.30;;
20142;SDS011;10509;46.476;7.134;2022-07-25T13:45:40;4.10;;;3.72;;
20142;SDS011;10509;46.476;7.134;2022-07-25T13:48:07;4.13;;;3.83;;
20142;SDS011;10509;46.476;7.134;2022-07-25T13:50:33;3.38;;;3.17;;
20142;SDS011;10509;46.476;7.134;2022-07-25T13:52:59;7.35;;;3.88;;
20142;SDS011;10509;46.476;7.134;2022-07-25T13:55:26;5.03;;;3.10;;
20142;SDS011;10509;46.476;7.134;2022-07-25T13:57:52;3.08;;;2.88;;
20142;SDS011;10509;46.476;7.134;2022-07-25T14:00:18;3.80;;;3.60;;
20142;SDS011;10509;46.476;7.134;2022-07-25T14:02:44;4.07;;;3.78;;
20142;SDS011;10509;46.476;7.134;2022-07-25T14:05:10;4.88;;;3.95;;
20142;SDS011;10509;46.476;7.134;2022-07-25T14:07:37;10.52;;;4.78;;
20142;SDS011;10509;46.476;7.134;2022-07-25T14:10:03;4.00;;;3.47;;
20142;SDS011;10509;46.476;7.134;2022-07-25T14:12:31;5.45;;;3.95;;
20142;SDS011;10509;46.476;7.134;2022-07-25T14:14:57;6.05;;;4.43;;
20142;SDS011;10509;46.476;7.134;2022-07-25T14:17:23;4.78;;;3.90;;
20142;SDS011;10509;46.476;7.134;2022-07-25T14:19:49;3.88;;;3.58;;
20142;SDS011;10509;46.476;7.134;2022-07-25T14:22:15;4.25;;;3.70;;
20142;SDS011;10509;46.476;7.134;2022-07-25T14:24:41;4.28;;;3.92;;
20142;SDS011;10509;46.476;7.134;2022-07-25T14:27:07;6.80;;;4.10;;
20142;SDS011;10509;46.476;7.134;2022-07-25T14:29:34;4.10;;;3.80;;
20142;SDS011;10509;46.476;7.134;2022-07-25T14:32:02;5.28;;;4.43;;
20142;SDS011;10509;46.476;7.134;2022-07-25T14:34:28;6.13;;;3.85;;
20142;SDS011;10509;46.476;7.134;2022-07-25T14:36:54;4.30;;;3.88;;
20142;SDS011;10509;46.476;7.134;2022-07-25T14:39:20;4.80;;;3.95;;
20142;SDS011;10509;46.476;7.134;2022-07-25T14:41:46;4.30;;;4.00;;
20142;SDS011;10509;46.476;7.134;2022-07-25T14:44:12;4.80;;;4.40;;
20142;SDS011;10509;46.476;7.134;2022-07-25T14:46:39;5.85;;;4.90;;
20142;SDS011;10509;46.476;7.134;2022-07-25T14:49:06;4.07;;;3.78;;
20142;SDS011;10509;46.476;7.134;2022-07-25T14:51:32;6.95;;;3.95;;
20142;SDS011;10509;46.476;7.134;2022-07-25T14:53:58;4.43;;;4.13;;
20142;SDS011;10509;46.476;7.134;2022-07-25T14:56:24;5.40;;;4.60;;
20142;SDS011;10509;46.476;7.134;2022-07-25T14:58:51;4.45;;;4.10;;
20142;SDS011;10509;46.476;7.134;2022-07-25T15:01:17;4.35;;;3.95;;
20142;SDS011;10509;46.476;7.134;2022-07-25T15:03:44;4.53;;;4.05;;
20142;SDS011;10509;46.476;7.134;2022-07-25T15:06:10;4.93;;;4.20;;
20142;SDS011;10509;46.476;7.134;2022-07-25T15:08:36;4.72;;;3.97;;
20142;SDS011;10509;46.476;7.134;2022-07-25T15:11:03;4.35;;;4.05;;